Time;durP1;ratioP1;P1;durP2;ratioP2;P2;SDS_P1;SDS_P2;PMS_P1;PMS_P2;Temp;Humidity;BMP_temperature;BMP_pressure;BME280_temperature;BME280_humidity;BME280_pressure;Samples;Min_cycle;Max_cycle;Signal;HPM_P1;HPM_P2
2022/03/01 00:00:28;;;;;;;;;41.00;33.00;;;;;9.31;41.67;102051.59;5055945;28;45550;-48
2022/03/01 00:02:54;;;;;;;;;36.00;32.00;;;;;9.05;41.95;102011.53;5061709;28;45444;-48
2022/03/01 00:05:19;;;;;;;;;43.25;36.50;;;;;9.18;42.04;102045.78;5061607;28;45407;-49
2022/03/01 00:07:45;;;;;;;;;47.25;36.50;;;;;9.13;42.33;102043.50;5061038;28;46142;-52
2022/03/01 00:10:10;;;;;;;;;45.50;36.75;;;;;8.59;41.40;101953.66;5060369;28;45484;-49
2022/03/01 00:12:36;;;;;;;;;44.75;36.75;;;;;9.15;42.26;102048.84;5061876;28;45369;-50
2022/03/01 00:15:02;;;;;;;;;44.00;33.25;;;;;8.46;42.39;101940.41;5060506;28;45305;-49
2022/03/01 00:17:28;;;;;;;;;41.80;37.00;;;;;9.09;41.45;102051.22;5061671;28;46495;-48
2022/03/01 00:19:53;;;;;;;;;39.25;30.75;;;;;9.08;41.44;102054.16;5061796;28;45656;-50
2022/03/01 00:22:19;;;;;;;;;47.25;34.25;;;;;9.09;42.23;102050.38;5060447;28;45465;-49
2022/03/01 00:24:44;;;;;;;;;45.75;37.00;;;;;9.11;42.24;102052.97;5060687;28;45392;-50
2022/03/01 00:27:10;;;;;;;;;40.75;36.25;;;;;9.08;41.67;102052.25;5061598;28;45957;-51
2022/03/01 00:29:35;;;;;;;;;40.25;35.75;;;;;9.07;41.68;102041.47;5059883;28;45390;-49
2022/03/01 00:32:01;;;;;;;;;40.75;33.50;;;;;8.99;41.94;102042.31;5060537;28;45455;-49
2022/03/01 00:34:26;;;;;;;;;27.25;22.00;;;;;8.95;42.00;102028.13;5061701;28;45330;-47
2022/03/01 00:36:52;;;;;;;;;30.25;28.50;;;;;8.94;42.43;102031.88;5055086;28;45910;-50
2022/03/01 00:39:17;;;;;;;;;38.25;34.50;;;;;8.95;42.50;102039.06;5061047;28;45301;-50
2022/03/01 00:41:43;;;;;;;;;43.75;34.75;;;;;8.97;42.42;102029.81;5060121;28;45536;-50
2022/03/01 00:44:08;;;;;;;;;35.75;31.50;;;;;8.97;43.20;102030.69;5061649;28;45357;-50
2022/03/01 00:46:34;;;;;;;;;19.50;17.00;;;;;8.77;42.82;101989.94;5053237;28;46756;-52
2022/03/01 00:49:00;;;;;;;;;53.75;39.75;;;;;8.96;42.57;102034.44;5055326;28;45379;-49
2022/03/01 00:51:26;;;;;;;;;42.75;35.50;;;;;8.91;42.21;102032.22;5058923;28;45332;-52
2022/03/01 00:53:51;;;;;;;;;36.40;32.80;;;;;8.87;43.13;102038.19;5043393;28;45788;-49
2022/03/01 00:56:17;;;;;;;;;41.25;36.25;;;;;8.60;42.37;102002.72;5060803;28;46654;-51
2022/03/01 00:58:42;;;;;;;;;41.50;37.00;;;;;8.79;42.94;102042.63;5061104;28;45404;-51
2022/03/01 01:01:08;;;;;;;;;42.50;37.50;;;;;8.77;43.18;102052.03;5061159;28;45958;-49
2022/03/01 01:03:33;;;;;;;;;45.50;33.00;;;;;8.73;42.98;102035.09;5061677;28;45304;-48
2022/03/01 01:05:59;;;;;;;;;38.25;36.00;;;;;8.82;43.08;102052.41;5061260;28;46062;-48
2022/03/01 01:08:24;;;;;;;;;42.00;35.75;;;;;8.61;42.91;102011.81;5060835;28;45374;-50
2022/03/01 01:10:50;;;;;;;;;41.75;36.75;;;;;8.80;42.91;102033.41;5061262;28;45359;-53
2022/03/01 01:13:15;;;;;;;;;44.25;37.50;;;;;8.76;43.08;102032.00;5057443;28;45565;-54
2022/03/01 01:15:42;;;;;;;;;38.25;34.75;;;;;8.67;42.99;102024.81;5057491;28;45435;-48
2022/03/01 01:18:07;;;;;;;;;40.20;35.20;;;;;8.54;43.25;101993.31;5057490;28;45338;-51
2022/03/01 01:20:33;;;;;;;;;48.00;40.00;;;;;8.73;43.05;102024.16;5057971;28;45362;-48
2022/03/01 01:22:58;;;;;;;;;48.25;37.00;;;;;8.62;43.36;102028.06;5057911;28;45580;-49
2022/03/01 01:25:24;;;;;;;;;46.75;37.25;;;;;8.58;43.85;102021.19;5055921;28;46148;-47
2022/03/01 01:27:51;;;;;;;;;41.00;35.75;;;;;8.34;44.32;101989.13;5057636;28;45439;-47
2022/03/01 01:30:20;;;;;;;;;44.80;38.60;;;;;8.57;43.63;102024.97;5056300;28;45817;-49
2022/03/01 01:32:48;;;;;;;;;45.50;40.50;;;;;8.51;43.32;102018.28;5057338;28;45301;-46
2022/03/01 01:35:13;;;;;;;;;48.50;39.25;;;;;8.45;43.76;102018.06;5057194;28;45566;-48
2022/03/01 01:37:39;;;;;;;;;39.00;36.75;;;;;8.44;43.58;102009.00;5055921;28;45379;-49
2022/03/01 01:40:06;;;;;;;;;47.25;39.00;;;;;8.49;43.88;102013.97;5057456;28;45356;-50
2022/03/01 01:42:31;;;;;;;;;43.75;39.25;;;;;8.30;43.79;101994.06;5057289;28;45457;-51
2022/03/01 01:44:57;;;;;;;;;47.00;39.25;;;;;8.45;43.78;102015.31;5055824;28;46302;-50
2022/03/01 01:47:22;;;;;;;;;44.75;36.25;;;;;8.34;44.19;101997.34;5056993;28;45471;-49
2022/03/01 01:49:48;;;;;;;;;45.50;37.50;;;;;8.47;43.64;102027.81;5057466;28;45480;-48
2022/03/01 01:52:13;;;;;;;;;47.50;40.00;;;;;8.43;44.24;102015.47;5057539;28;45402;-47
2022/03/01 01:54:40;;;;;;;;;51.25;39.00;;;;;8.50;43.84;102021.16;5038605;28;46314;-47
2022/03/01 01:57:13;;;;;;;;;50.20;40.80;;;;;8.39;44.85;102020.44;5024986;28;45294;-50
2022/03/01 01:59:39;;;;;;;;;41.80;35.00;;;;;8.29;43.66;102000.56;5057195;28;45367;-48
2022/03/01 02:02:05;;;;;;;;;46.50;40.00;;;;;8.31;44.18;101994.94;5057214;28;45585;-47
2022/03/01 02:04:31;;;;;;;;;40.25;38.00;;;;;8.48;43.82;102026.78;5056796;28;46274;-51
2022/03/01 02:06:56;;;;;;;;;48.00;40.00;;;;;8.46;44.24;102028.84;5055403;28;45378;-49
2022/03/01 02:09:22;;;;;;;;;48.75;39.50;;;;;8.41;43.98;102014.78;5056635;28;45269;-52
2022/03/01 02:11:47;;;;;;;;;49.50;40.00;;;;;8.46;44.34;102025.22;5072645;28;45531;-49
2022/03/01 02:14:13;;;;;;;;;41.00;37.50;;;;;8.43;44.50;102020.09;5056699;28;45720;-49
2022/03/01 02:16:38;;;;;;;;;51.00;39.25;;;;;8.41;44.30;102021.13;5056633;28;45479;-47
2022/03/01 02:19:04;;;;;;;;;49.25;39.25;;;;;8.41;43.63;102026.59;5072480;28;45483;-46
2022/03/01 02:21:30;;;;;;;;;42.00;36.50;;;;;8.21;44.44;101990.44;5055432;28;45583;-47
2022/03/01 02:23:55;;;;;;;;;52.75;40.00;;;;;8.44;43.99;102030.03;5055027;28;45455;-50
2022/03/01 02:26:21;;;;;;;;;54.50;40.75;;;;;8.40;43.85;102029.50;5056592;28;45479;-48
2022/03/01 02:28:46;;;;;;;;;50.75;40.50;;;;;8.37;44.37;102018.88;5056941;28;45392;-48
2022/03/01 02:31:12;;;;;;;;;39.25;37.75;;;;;8.32;43.99;102019.38;5056880;28;45345;-51
2022/03/01 02:33:37;;;;;;;;;39.50;34.50;;;;;8.37;44.21;102019.75;5056165;28;46030;-47
2022/03/01 02:36:03;;;;;;;;;50.00;38.00;;;;;8.18;43.95;101992.66;5056393;28;45509;-51
2022/03/01 02:38:29;;;;;;;;;48.50;38.75;;;;;8.18;44.36;101988.06;5056058;28;45290;-51
2022/03/01 02:40:54;;;;;;;;;39.75;36.50;;;;;8.27;44.07;102006.22;5056475;27;45740;-47
2022/03/01 02:43:19;;;;;;;;;38.75;32.50;;;;;8.13;44.04;101984.97;5055983;28;45758;-48
2022/03/01 02:45:45;;;;;;;;;45.75;39.25;;;;;8.30;43.94;102020.56;5056451;28;45298;-46
2022/03/01 02:48:11;;;;;;;;;48.75;41.75;;;;;8.33;44.38;102017.50;5056264;28;45240;-46
2022/03/01 02:50:36;;;;;;;;;45.25;40.25;;;;;8.29;44.09;102011.53;5054850;28;45381;-49
2022/03/01 02:53:02;;;;;;;;;41.50;35.00;;;;;8.37;44.15;102021.59;5055771;28;46465;-48
2022/03/01 02:55:27;;;;;;;;;52.00;37.75;;;;;8.32;44.38;102026.75;5054150;28;45437;-49
2022/03/01 02:57:53;;;;;;;;;52.25;44.25;;;;;8.37;44.64;102022.47;5055989;28;45484;-48
2022/03/01 03:00:18;;;;;;;;;43.50;36.00;;;;;8.35;44.07;102027.28;5055788;28;45757;-48
2022/03/01 03:02:44;;;;;;;;;52.75;44.00;;;;;8.33;44.09;102025.72;5044167;28;46548;-49
2022/03/01 03:05:10;;;;;;;;;51.00;40.50;;;;;8.30;44.29;102024.16;5055526;28;45369;-46
2022/03/01 03:07:35;;;;;;;;;41.50;37.75;;;;;8.28;44.62;102026.22;5051858;28;45510;-49
2022/03/01 03:10:01;;;;;;;;;54.75;40.25;;;;;8.32;44.19;102033.06;5054048;28;45374;-51
2022/03/01 03:12:27;;;;;;;;;46.00;40.50;;;;;8.27;44.47;102035.44;5054193;28;45815;-49
2022/03/01 03:14:53;;;;;;;;;49.00;40.25;;;;;8.23;44.70;102026.69;5047048;28;45304;-49
2022/03/01 03:17:18;;;;;;;;;53.75;42.00;;;;;8.20;44.97;102024.31;5055549;28;45423;-49
2022/03/01 03:19:44;;;;;;;;;41.50;36.25;;;;;7.98;44.69;101996.53;5055603;28;45328;-52
2022/03/01 03:22:09;;;;;;;;;45.00;38.25;;;;;8.15;45.23;102026.66;5055105;28;45577;-51
2022/03/01 03:24:35;;;;;;;;;60.25;44.25;;;;;8.08;44.85;102025.63;5053956;28;45351;-47
2022/03/01 03:27:00;;;;;;;;;43.50;36.75;;;;;8.02;45.07;102018.06;5054404;28;45291;-51
2022/03/01 03:29:26;;;;;;;;;49.75;39.00;;;;;8.06;45.06;102022.19;5054416;28;45315;-49
2022/03/01 03:31:56;;;;;;;;;55.25;42.00;;;;;7.87;45.22;101994.06;5054938;28;46521;-50
2022/03/01 03:34:22;;;;;;;;;51.60;40.40;;;;;8.04;44.72;102016.00;5055004;28;45416;-51
2022/03/01 03:36:48;;;;;;;;;40.75;38.75;;;;;8.05;45.42;102020.47;5053686;28;45479;-52
2022/03/01 03:39:13;;;;;;;;;48.50;40.75;;;;;8.00;45.50;102013.63;5055533;28;45911;-51
2022/03/01 03:41:39;;;;;;;;;47.25;41.50;;;;;7.88;46.04;101982.13;5053758;28;47783;-49
2022/03/01 03:44:05;;;;;;;;;49.00;40.50;;;;;8.13;44.74;102012.31;5053807;28;45425;-52
2022/03/01 03:46:30;;;;;;;;;45.75;38.25;;;;;8.18;45.61;102015.41;5053928;28;45338;-50
2022/03/01 03:48:56;;;;;;;;;52.25;42.00;;;;;8.20;45.45;102007.88;5053909;28;45323;-47
2022/03/01 03:51:23;;;;;;;;;51.50;39.00;;;;;8.11;45.31;101981.53;5053606;28;45663;-49
2022/03/01 03:53:48;;;;;;;;;51.20;41.40;;;;;8.10;45.42;101979.81;5054718;28;45582;-50
2022/03/01 03:56:14;;;;;;;;;43.00;39.00;;;;;8.09;46.12;101972.63;5055548;28;45456;-50
2022/03/01 03:58:39;;;;;;;;;47.75;41.25;;;;;8.32;45.33;102016.66;5055217;28;45593;-47
2022/03/01 04:01:05;;;;;;;;;45.75;41.00;;;;;8.33;45.54;102014.78;5055397;28;45398;-47
2022/03/01 04:03:30;;;;;;;;;44.50;38.75;;;;;8.31;45.85;102011.38;5054836;28;45417;-47
2022/03/01 04:05:56;;;;;;;;;46.00;39.75;;;;;8.32;45.58;102000.22;5055070;28;45283;-48
2022/03/01 04:08:22;;;;;;;;;51.00;41.50;;;;;8.14;45.97;101973.00;5054150;28;45420;-47
2022/03/01 04:10:47;;;;;;;;;56.00;44.00;;;;;8.36;45.59;102004.34;5054951;28;45341;-50
2022/03/01 04:13:13;;;;;;;;;57.25;41.50;;;;;8.39;45.88;101994.97;5054880;28;45429;-50
2022/03/01 04:15:38;;;;;;;;;48.00;42.00;;;;;8.38;46.72;101996.84;5053929;28;45388;-50
2022/03/01 04:18:04;;;;;;;;;47.25;40.25;;;;;8.37;46.03;101991.50;5055226;28;45517;-50
2022/03/01 04:20:29;;;;;;;;;57.75;42.00;;;;;8.33;45.92;101990.16;5054771;28;45333;-48
2022/03/01 04:22:55;;;;;;;;;54.25;40.75;;;;;8.31;46.26;101990.31;5054631;28;45504;-48
2022/03/01 04:25:20;;;;;;;;;50.50;41.25;;;;;8.10;45.79;101964.28;5055120;28;45320;-50
2022/03/01 04:27:46;;;;;;;;;57.00;44.75;;;;;8.09;45.85;101968.03;5054823;28;45550;-49
2022/03/01 04:30:12;;;;;;;;;49.75;39.00;;;;;8.25;45.82;102002.78;5054897;28;47021;-49
2022/03/01 04:32:39;;;;;;;;;55.00;39.25;;;;;8.21;45.97;102004.13;5054673;28;45307;-47
2022/03/01 04:35:05;;;;;;;;;56.50;40.50;;;;;8.19;45.56;102005.31;5053601;28;45588;-47
2022/03/01 04:37:31;;;;;;;;;61.00;44.50;;;;;8.14;45.80;102005.81;5054971;28;45525;-47
2022/03/01 04:39:56;;;;;;;;;52.50;42.00;;;;;8.07;45.87;101991.94;5053297;28;46458;-48
2022/03/01 04:42:22;;;;;;;;;50.00;42.75;;;;;8.05;46.24;101999.44;5054620;28;45306;-52
2022/03/01 04:44:47;;;;;;;;;47.50;40.50;;;;;8.08;46.78;101992.78;5054511;28;45411;-47
2022/03/01 04:47:14;;;;;;;;;52.25;44.50;;;;;8.13;46.33;102002.22;5055498;28;45404;-49
2022/03/01 04:49:39;;;;;;;;;49.75;39.50;;;;;8.08;45.80;101992.78;5058624;28;46561;-50
2022/03/01 04:52:05;;;;;;;;;48.75;41.50;;;;;8.15;45.79;102007.53;5039958;28;45279;-47
2022/03/01 04:54:31;;;;;;;;;48.25;40.25;;;;;7.97;45.92;101972.94;5090293;27;45313;-50
2022/03/01 04:56:56;;;;;;;;;44.00;40.00;;;;;8.19;45.51;102008.03;5056851;28;45269;-48
2022/03/01 04:59:22;;;;;;;;;47.50;38.00;;;;;8.19;45.18;102008.91;5089914;27;47544;-50
2022/03/01 05:01:47;;;;;;;;;42.00;37.75;;;;;8.14;45.35;102003.06;5057613;28;45359;-52
2022/03/01 05:04:13;;;;;;;;;36.75;31.50;;;;;8.10;45.39;102007.16;5057880;28;45353;-49
2022/03/01 05:06:38;;;;;;;;;51.00;40.25;;;;;8.00;45.02;102002.69;5090484;27;45398;-52
2022/03/01 05:09:04;;;;;;;;;44.25;38.00;;;;;7.87;45.93;101996.81;5057218;28;45470;-49
2022/03/01 05:11:29;;;;;;;;;42.50;37.50;;;;;7.84;45.57;101999.84;5057373;28;45401;-49
2022/03/01 05:13:55;;;;;;;;;29.25;25.50;;;;;7.89;45.63;102000.22;5057293;28;45446;-52
2022/03/01 05:16:20;;;;;;;;;48.75;40.00;;;;;7.90;45.56;101993.72;5056367;28;45552;-49
2022/03/01 05:18:46;;;;;;;;;37.00;29.00;;;;;7.98;46.01;101991.06;5089748;27;45522;-48
2022/03/01 05:21:11;;;;;;;;;44.75;37.50;;;;;8.03;45.51;101989.69;5057606;28;45354;-52
2022/03/01 05:23:37;;;;;;;;;44.75;36.50;;;;;7.95;45.80;101991.38;5057022;28;45415;-50
2022/03/01 05:26:04;;;;;;;;;47.00;40.25;;;;;7.83;45.64;101960.75;5057708;28;45655;-51
2022/03/01 05:28:30;;;;;;;;;40.00;32.40;;;;;7.97;45.36;101993.94;5057042;28;46597;-48
2022/03/01 05:30:56;;;;;;;;;45.00;34.25;;;;;7.92;45.79;101994.44;5055923;28;45343;-57
2022/03/01 05:33:21;;;;;;;;;44.50;34.25;;;;;8.03;46.10;101997.91;5057138;28;45352;-48
2022/03/01 05:35:47;;;;;;;;;45.00;39.75;;;;;8.03;45.95;101992.44;5057199;28;45324;-48
2022/03/01 05:38:12;;;;;;;;;49.00;41.75;;;;;7.97;45.39;101983.88;5056909;28;46628;-49
2022/03/01 05:40:38;;;;;;;;;44.50;38.00;;;;;8.02;45.82;101994.31;5057089;28;45312;-49
2022/03/01 05:43:04;;;;;;;;;48.00;38.25;;;;;7.89;46.05;101969.31;5055616;28;45355;-52
2022/03/01 05:45:30;;;;;;;;;54.00;38.00;;;;;7.79;45.84;101948.41;5057273;28;45610;-51
2022/03/01 05:47:56;;;;;;;;;50.25;38.75;;;;;8.03;46.36;101985.09;5056594;28;46751;-50
2022/03/01 05:50:22;;;;;;;;;46.20;37.20;;;;;8.04;45.85;101983.19;5056644;28;45374;-50
2022/03/01 05:52:47;;;;;;;;;53.25;41.75;;;;;7.97;46.22;101985.75;5056631;28;45488;-49
2022/03/01 05:55:13;;;;;;;;;50.75;42.50;;;;;7.82;46.74;101947.22;5056858;28;45794;-52
2022/03/01 05:57:38;;;;;;;;;49.25;38.25;;;;;7.93;45.76;101987.94;5056457;28;45743;-51
2022/03/01 06:00:09;;;;;;;;;48.25;39.00;;;;;7.93;45.74;101993.44;5056699;28;45397;-50
2022/03/01 06:02:35;;;;;;;;;31.00;27.60;;;;;7.86;46.03;101989.63;5056498;28;45385;-53
2022/03/01 06:05:00;;;;;;;;;52.75;41.25;;;;;7.75;45.87;101968.03;5055822;28;45251;-50
2022/03/01 06:07:26;;;;;;;;;54.50;41.00;;;;;7.86;46.52;101985.00;5056344;28;46456;-51
2022/03/01 06:09:51;;;;;;;;;54.50;44.25;;;;;7.88;46.73;101986.75;5054967;28;45464;-48
2022/03/01 06:12:17;;;;;;;;;52.75;41.75;;;;;7.90;46.10;101981.97;5056600;28;45388;-50
2022/03/01 06:14:42;;;;;;;;;50.50;42.00;;;;;7.72;46.46;101956.44;5056690;28;45402;-49
2022/03/01 06:17:08;;;;;;;;;46.50;41.00;;;;;7.85;46.52;101987.94;5056427;28;45453;-50
2022/03/01 06:19:34;;;;;;;;;45.60;37.60;;;;;7.86;46.77;101985.00;5056091;28;45369;-48
2022/03/01 06:22:00;;;;;;;;;43.50;38.25;;;;;7.90;46.50;101985.53;5056684;28;45239;-51
2022/03/01 06:24:25;;;;;;;;;52.75;45.00;;;;;7.84;46.33;101972.50;5055323;28;45371;-50
2022/03/01 06:26:51;;;;;;;;;53.25;42.00;;;;;7.16;46.52;101874.84;5055045;28;48465;-50
2022/03/01 06:29:16;;;;;;;;;45.75;39.25;;;;;7.76;46.23;101977.94;5054930;28;45448;-47
2022/03/01 06:31:42;;;;;;;;;41.75;34.50;;;;;7.96;46.43;102006.75;5055121;28;45626;-47
2022/03/01 06:34:07;;;;;;;;;49.50;41.00;;;;;7.98;45.96;102007.47;5055133;28;45510;-47
2022/03/01 06:36:33;;;;;;;;;46.50;40.75;;;;;7.97;46.03;102013.09;5055835;28;46005;-49
2022/03/01 06:38:58;;;;;;;;;52.50;40.00;;;;;7.93;46.40;102015.28;5056172;28;45421;-48
2022/03/01 06:41:24;;;;;;;;;46.00;38.00;;;;;7.94;46.27;102014.28;5054981;28;45395;-51
2022/03/01 06:43:49;;;;;;;;;53.50;41.25;;;;;7.96;46.83;102023.16;5056457;28;45419;-49
2022/03/01 06:46:15;;;;;;;;;51.25;43.00;;;;;8.02;46.60;102021.66;5088411;27;46205;-48
2022/03/01 06:48:41;;;;;;;;;55.25;43.25;;;;;8.09;46.62;102017.25;5088434;27;45410;-51
2022/03/01 06:51:09;;;;;;;;;49.00;40.50;;;;;7.92;46.68;101978.03;5056155;28;45422;-52
2022/03/01 06:53:35;;;;;;;;;57.25;44.00;;;;;8.19;46.64;102035.41;5054699;28;45421;-51
2022/03/01 06:56:01;;;;;;;;;46.00;41.00;;;;;8.12;46.24;102018.81;5055931;28;45430;-48
2022/03/01 06:58:26;;;;;;;;;54.50;41.25;;;;;8.04;46.60;102000.47;5054737;28;45407;-47
2022/03/01 07:00:52;;;;;;;;;51.00;40.75;;;;;8.20;46.25;102034.38;5088784;27;45416;-50
2022/03/01 07:03:17;;;;;;;;;56.50;42.00;;;;;8.17;46.68;102019.13;5056303;28;45666;-51
2022/03/01 07:05:44;;;;;;;;;52.00;41.00;;;;;8.21;46.17;102038.84;5056182;28;45412;-49
2022/03/01 07:08:11;;;;;;;;;47.00;41.25;;;;;8.12;46.58;102038.78;5055884;28;45385;-51
2022/03/01 07:10:36;;;;;;;;;47.50;40.25;;;;;8.17;46.60;102041.03;4910784;27;45522;-50
2022/03/01 07:13:02;;;;;;;;;51.00;41.25;;;;;8.19;46.58;102033.53;5061612;28;45566;-54
2022/03/01 07:15:28;;;;;;;;;49.00;40.50;;;;;7.94;46.89;102011.53;5055534;28;45450;-49
2022/03/01 07:17:53;;;;;;;;;41.75;38.00;;;;;8.12;46.69;102043.41;5055878;28;45875;-48
2022/03/01 07:20:19;;;;;;;;;44.50;35.00;;;;;8.16;46.49;102050.25;5055819;28;45427;-49
2022/03/01 07:22:44;;;;;;;;;40.75;39.50;;;;;8.17;46.64;102051.97;5055936;28;45402;-48
2022/03/01 07:25:10;;;;;;;;;51.50;42.75;;;;;8.21;46.33;102042.41;5055428;28;46396;-50
2022/03/01 07:27:36;;;;;;;;;52.25;41.75;;;;;8.09;46.28;102030.06;5055629;28;45406;-52
2022/03/01 07:30:03;;;;;;;;;47.25;42.25;;;;;8.08;46.73;102028.34;5071307;28;45341;-51
2022/03/01 07:32:28;;;;;;;;;44.25;40.75;;;;;8.12;46.74;102035.22;5055741;28;45347;-50
2022/03/01 07:34:53;;;;;;;;;56.00;44.25;;;;;8.16;46.45;102042.06;5048469;28;46093;-48
2022/03/01 07:37:19;;;;;;;;;52.00;43.75;;;;;8.10;46.63;102029.91;5049971;28;45667;-52
2022/03/01 07:39:45;;;;;;;;;52.50;44.75;;;;;8.19;46.32;102038.13;5066765;28;45754;-53
2022/03/01 07:42:10;;;;;;;;;57.25;44.25;;;;;8.17;46.37;102046.50;5080291;27;45654;-54
2022/03/01 07:44:37;;;;;;;;;48.50;42.50;;;;;7.93;46.48;101995.28;5047428;28;45489;-52
2022/03/01 07:47:08;;;;;;;;;54.60;41.60;;;;;8.03;46.76;102012.44;5050842;28;45539;-55
2022/03/01 07:49:34;;;;;;;;;49.40;41.60;;;;;8.31;46.60;102041.44;5053708;28;45396;-53
2022/03/01 07:52:00;;;;;;;;;45.25;37.75;;;;;8.14;46.77;102003.06;5054391;28;45555;-51
2022/03/01 07:54:25;;;;;;;;;44.75;39.00;;;;;8.14;46.67;102001.22;5053755;28;45813;-50
2022/03/01 07:56:51;;;;;;;;;54.25;44.75;;;;;8.23;46.78;102001.25;5055369;28;45357;-50
2022/03/01 07:59:17;;;;;;;;;52.00;41.00;;;;;8.51;46.85;102037.44;5054011;28;45329;-52
2022/03/01 08:01:42;;;;;;;;;52.75;40.75;;;;;8.31;46.20;101997.69;5055527;28;45408;-52
2022/03/01 08:04:08;;;;;;;;;50.75;43.25;;;;;8.49;46.00;102033.13;5054926;28;46036;-49
2022/03/01 08:06:33;;;;;;;;;51.75;41.25;;;;;8.57;46.10;102033.19;5034953;27;45343;-52
2022/03/01 08:08:59;;;;;;;;;52.50;41.75;;;;;8.66;46.61;102043.09;5048262;28;45867;-51
2022/03/01 08:11:24;;;;;;;;;53.75;42.75;;;;;8.50;46.38;102018.41;5051073;28;45735;-54
2022/03/01 08:13:50;;;;;;;;;49.00;41.00;;;;;8.72;46.51;102044.34;5036715;27;47440;-54
2022/03/01 08:16:16;;;;;;;;;53.00;42.00;;;;;8.76;45.90;102039.38;5050299;28;45402;-52
2022/03/01 08:18:42;;;;;;;;;56.50;44.75;;;;;8.54;46.02;102009.72;5049329;28;45445;-51
2022/03/01 08:21:08;;;;;;;;;53.75;42.00;;;;;8.73;46.46;102046.03;5051581;28;45758;-54
2022/03/01 08:23:34;;;;;;;;;53.00;43.75;;;;;8.70;45.97;102048.25;5052500;28;46499;-53
2022/03/01 08:25:59;;;;;;;;;60.00;44.00;;;;;8.65;45.78;102044.13;5053091;28;45438;-57
2022/03/01 08:28:25;;;;;;;;;54.75;44.00;;;;;8.61;45.98;102051.00;5054230;28;45512;-54
2022/03/01 08:30:52;;;;;;;;;53.00;44.75;;;;;8.62;46.08;102043.63;5053887;28;45587;-55
2022/03/01 08:33:18;;;;;;;;;53.75;44.00;;;;;8.60;46.14;102038.31;5053823;28;46318;-51
2022/03/01 08:35:44;;;;;;;;;52.00;40.40;;;;;8.58;46.69;102037.63;5053799;28;45506;-51
2022/03/01 08:38:10;;;;;;;;;49.75;42.50;;;;;8.65;46.98;102043.31;5046410;28;45836;-51
2022/03/01 08:40:40;;;;;;;;;56.50;43.25;;;;;8.79;46.82;102050.84;5050713;28;45407;-52
2022/03/01 08:43:11;;;;;;;;;47.75;41.25;;;;;8.85;45.66;102043.00;5050259;28;47251;-54
2022/03/01 08:45:37;;;;;;;;;51.20;40.20;;;;;8.86;45.94;102044.72;5050510;28;46604;-51
2022/03/01 08:48:03;;;;;;;;;50.75;44.25;;;;;8.95;46.26;102043.69;5035510;28;45702;-48
2022/03/01 08:50:29;;;;;;;;;51.00;42.75;;;;;9.00;46.63;102043.16;5052040;27;45314;-50
2022/03/01 08:52:54;;;;;;;;;56.50;45.00;;;;;9.05;45.55;102038.91;5052658;28;45409;-47
2022/03/01 08:55:20;;;;;;;;;56.50;46.50;;;;;9.13;46.07;102050.91;5052307;28;45512;-48
2022/03/01 08:57:46;;;;;;;;;52.75;43.25;;;;;9.10;45.38;102049.34;5050017;28;45963;-49
2022/03/01 09:00:12;;;;;;;;;60.50;46.75;;;;;9.09;45.18;102062.19;5052990;28;45723;-48
2022/03/01 09:02:38;;;;;;;;;59.00;45.75;;;;;9.15;45.62;102060.66;5031825;28;46350;-50
2022/03/01 09:05:07;;;;;;;;;58.50;47.25;;;;;9.21;45.97;102070.06;5052214;28;45579;-50
2022/03/01 09:07:33;;;;;;;;;58.50;47.00;;;;;9.27;46.18;102060.31;5053025;28;45798;-50
2022/03/01 09:09:59;;;;;;;;;57.50;44.75;;;;;9.22;45.46;102055.34;5049758;28;45737;-55
2022/03/01 09:12:25;;;;;;;;;56.50;44.00;;;;;9.31;45.37;102070.78;5051037;28;45436;-54
2022/03/01 09:14:51;;;;;;;;;59.25;43.50;;;;;9.33;46.18;102062.34;5052371;28;45504;-57
2022/03/01 09:17:16;;;;;;;;;48.25;41.00;;;;;9.35;44.82;102058.41;5026882;28;45574;-54
2022/03/01 09:19:42;;;;;;;;;58.00;43.00;;;;;9.39;45.33;102060.84;5041350;28;45874;-55
2022/03/01 09:22:07;;;;;;;;;49.75;41.00;;;;;9.36;45.09;102059.28;5052817;28;45524;-53
2022/03/01 09:24:33;;;;;;;;;49.50;42.75;;;;;9.37;44.89;102055.53;5051988;28;45422;-52
2022/03/01 09:27:01;;;;;;;;;55.50;43.50;;;;;9.36;45.70;102046.44;5052741;28;45502;-55
2022/03/01 09:29:30;;;;;;;;;49.50;39.25;;;;;9.47;44.63;102055.34;5053218;28;45500;-54
2022/03/01 09:31:55;;;;;;;;;56.25;44.50;;;;;9.51;46.12;102040.28;5053080;28;46072;-52
2022/03/01 09:34:21;;;;;;;;;55.25;43.00;;;;;9.22;45.55;101984.13;5051954;28;45435;-55
2022/03/01 09:36:47;;;;;;;;;56.00;42.75;;;;;9.61;44.54;102043.66;5049536;28;45922;-55
2022/03/01 09:39:12;;;;;;;;;50.00;40.00;;;;;9.64;45.77;102028.75;5068134;28;45429;-54
2022/03/01 09:41:38;;;;;;;;;52.75;43.50;;;;;9.71;45.78;102027.03;5052504;28;47531;-52
2022/03/01 09:44:04;;;;;;;;;56.25;43.50;;;;;9.88;44.99;102035.22;5050704;28;45898;-51
2022/03/01 09:46:30;;;;;;;;;62.20;43.80;;;;;9.94;44.94;102030.91;5052902;28;45651;-53
2022/03/01 09:48:56;;;;;;;;;61.75;45.75;;;;;9.94;44.82;102022.69;5051852;28;45371;-55
2022/03/01 09:51:22;;;;;;;;;62.00;50.00;;;;;10.00;45.20;102030.22;5052437;28;47121;-55
2022/03/01 09:53:48;;;;;;;;;58.50;46.00;;;;;10.03;45.71;102030.72;5051002;28;45385;-55
2022/03/01 09:56:14;;;;;;;;;64.00;48.00;;;;;10.03;44.69;102029.84;5051167;28;45742;-55
2022/03/01 09:58:40;;;;;;;;;62.75;50.75;;;;;10.13;44.87;102046.09;5053350;28;45412;-57
2022/03/01 10:01:06;;;;;;;;;57.00;45.25;;;;;10.19;44.64;102044.56;5051734;28;46318;-56
2022/03/01 10:03:34;;;;;;;;;67.75;49.75;;;;;10.24;43.92;102047.63;5052522;28;45708;-54
2022/03/01 10:06:10;;;;;;;;;62.50;46.25;;;;;10.26;44.41;102048.31;5051278;28;45582;-55
2022/03/01 10:08:35;;;;;;;;;57.25;45.75;;;;;10.24;44.29;102050.38;5053188;28;45618;-54
2022/03/01 10:11:01;;;;;;;;;55.75;45.25;;;;;10.27;43.99;102048.13;5052542;28;45447;-55
2022/03/01 10:13:28;;;;;;;;;56.00;45.50;;;;;10.20;44.34;102024.31;5050061;28;45883;-57
2022/03/01 10:16:14;;;;;;;;;54.25;44.00;;;;;10.42;43.15;102050.13;5052241;28;45495;-53
2022/03/01 10:18:48;;;;;;;;;57.75;46.75;;;;;10.62;43.91;102058.78;5052778;28;45406;-50
2022/03/01 10:21:14;;;;;;;;;57.00;45.75;;;;;10.83;43.77;102060.91;5052453;28;45463;-53
2022/03/01 10:23:47;;;;;;;;;58.00;46.50;;;;;10.96;42.75;102062.19;5052254;28;45580;-54
2022/03/01 10:26:17;;;;;;;;;55.50;43.00;;;;;11.08;42.94;102049.75;5051253;28;45429;-56
2022/03/01 10:28:43;;;;;;;;;59.00;45.25;;;;;11.04;42.82;102015.44;5052709;28;45464;-56
2022/03/01 10:31:25;;;;;;;;;56.25;43.00;;;;;11.46;42.65;102043.41;5052345;28;46498;-54
2022/03/01 10:34:08;;;;;;;;;61.75;45.75;;;;;11.72;41.65;102035.78;5050885;28;45449;-55
2022/03/01 10:36:46;;;;;;;;;51.60;40.40;;;;;11.88;41.33;102037.50;5042781;28;45620;-55
2022/03/01 10:39:15;;;;;;;;;52.00;42.75;;;;;11.93;41.75;102030.41;5049893;28;45805;-55
2022/03/01 10:41:43;;;;;;;;;56.25;43.00;;;;;11.94;41.39;102025.72;5065796;27;47131;-57
2022/03/01 10:44:25;;;;;;;;;53.75;41.50;;;;;11.70;40.49;101988.34;5051512;28;45488;-53
2022/03/01 10:46:55;;;;;;;;;60.00;46.75;;;;;11.90;40.53;102029.91;5051755;28;45878;-54
2022/03/01 10:49:32;;;;;;;;;51.00;40.75;;;;;11.82;40.97;102038.25;5052428;28;45798;-55
2022/03/01 10:51:59;;;;;;;;;55.25;42.50;;;;;11.73;40.68;102040.22;5049341;28;45896;-55
2022/03/01 10:54:31;;;;;;;;;55.40;42.80;;;;;11.62;41.01;102028.66;5066736;28;45640;-54
2022/03/01 10:56:57;;;;;;;;;53.00;41.40;;;;;11.58;41.14;102026.47;5051772;28;45808;-59
2022/03/01 10:59:24;;;;;;;;;51.75;42.50;;;;;11.52;41.35;102019.81;5050368;28;45463;-54
2022/03/01 11:01:49;;;;;;;;;50.20;39.60;;;;;11.56;41.22;102023.91;5048907;28;47866;-55
2022/03/01 11:04:15;;;;;;;;;53.00;38.75;;;;;11.57;41.47;102016.53;5051544;28;45400;-54
2022/03/01 11:06:41;;;;;;;;;45.50;38.25;;;;;11.64;40.85;102010.06;5050192;28;45783;-54
2022/03/01 11:09:07;;;;;;;;;43.50;38.25;;;;;11.35;41.44;101955.88;5052051;28;45469;-56
2022/03/01 11:11:32;;;;;;;;;54.00;35.50;;;;;11.77;40.95;102012.19;5033270;28;46102;-56